createdAt,value
2019-02-12T00:00:24.130Z,101117.51
2019-02-12T00:05:26.204Z,101134.77
2019-02-12T00:10:28.286Z,101133.41
2019-02-12T00:15:30.353Z,101139.44
2019-02-12T00:20:32.454Z,101149.28
2019-02-12T00:25:34.702Z,101139.19
2019-02-12T00:30:36.818Z,101144.14
2019-02-12T00:35:38.872Z,101139.50
2019-02-12T00:40:43.533Z,101138.69
2019-02-12T00:45:45.689Z,101130.52
2019-02-12T00:50:47.796Z,101147.43
2019-02-12T00:55:49.928Z,101154.05
2019-02-12T01:00:52.043Z,101152.13
2019-02-12T01:05:54.080Z,101161.30
2019-02-12T01:10:57.300Z,101163.35
2019-02-12T01:15:59.422Z,101161.98
2019-02-12T01:21:01.494Z,101165.02
2019-02-12T01:26:03.624Z,101180.25
2019-02-12T01:31:05.717Z,101183.28
2019-02-12T01:36:07.761Z,101193.95
2019-02-12T01:41:09.842Z,101189.02
2019-02-12T01:46:12.050Z,101204.13
2019-02-12T01:51:14.121Z,101203.28
2019-02-12T01:56:16.178Z,101226.86
2019-02-12T02:01:18.264Z,101228.61
2019-02-12T02:06:20.493Z,101235.55
2019-02-12T02:11:22.634Z,101226.86
2019-02-12T02:16:24.702Z,101221.06
2019-02-12T02:21:27.182Z,101225.91
2019-02-12T02:26:29.344Z,101240.22
2019-02-12T02:31:31.425Z,101237.52
2019-02-12T02:36:33.503Z,101236.31
2019-02-12T02:41:35.622Z,101240.70
2019-02-12T02:46:37.720Z,101236.17
2019-02-12T02:51:39.877Z,101245.85
2019-02-12T02:56:42.005Z,101247.35
2019-02-12T03:01:43.982Z,101268.79
2019-02-12T03:06:46.064Z,101264.27
2019-02-12T03:11:48.117Z,101262.70
2019-02-12T03:16:50.173Z,101272.17
2019-02-12T03:21:52.291Z,101274.09
2019-02-12T03:26:56.883Z,101282.66
2019-02-12T03:31:59.141Z,101280.95
2019-02-12T03:37:01.242Z,101294.98
2019-02-12T03:42:03.521Z,101298.06
2019-02-12T03:47:05.570Z,101278.58
2019-02-12T03:52:13.014Z,101316.59
2019-02-12T03:57:11.689Z,101317.95
2019-02-12T04:02:13.749Z,101312.27
2019-02-12T04:07:15.837Z,101315.79
2019-02-12T04:12:19.008Z,101298.28
2019-02-12T04:17:21.120Z,101295.56
2019-02-12T04:22:23.425Z,101290.44
2019-02-12T04:27:25.550Z,101292.09
2019-02-12T04:32:27.652Z,101297.63
2019-02-12T04:37:29.732Z,101294.86
2019-02-12T04:42:31.830Z,101309.13
2019-02-12T04:47:33.937Z,101302.80
2019-02-12T04:52:35.972Z,101303.48
2019-02-12T04:57:38.000Z,101305.60
2019-02-12T05:02:40.065Z,101311.35
2019-02-12T05:07:44.004Z,101314.84
2019-02-12T05:12:46.038Z,101312.51
2019-02-12T05:17:48.110Z,101315.82
2019-02-12T05:22:50.182Z,101323.90
2019-02-12T05:27:54.194Z,101321.05
2019-02-12T05:32:58.522Z,101305.50
2019-02-12T05:38:00.618Z,101322.90
2019-02-12T05:43:04.821Z,101325.24
2019-02-12T05:48:06.909Z,101336.78
2019-02-12T05:53:08.998Z,101348.80
2019-02-12T05:58:11.064Z,101359.95
2019-02-12T06:03:13.206Z,101361.88
2019-02-12T06:08:15.281Z,101363.24
2019-02-12T06:13:17.320Z,101375.16
2019-02-12T06:18:19.452Z,101381.33
2019-02-12T06:23:21.535Z,101389.44
2019-02-12T06:28:23.935Z,101392.80
2019-02-12T06:33:25.967Z,101397.92
2019-02-12T06:38:27.970Z,101396.08
2019-02-12T06:43:30.112Z,101407.29
2019-02-12T06:48:32.217Z,101404.86
2019-02-12T06:53:34.397Z,101407.30
2019-02-12T06:58:36.610Z,101420.48
2019-02-12T07:03:56.307Z,101432.70
2019-02-12T07:09:27.728Z,101429.87
2019-02-12T07:14:50.296Z,101442.95
2019-02-12T07:20:28.130Z,101460.34
2019-02-12T07:26:05.397Z,101471.56
2019-02-12T07:31:26.142Z,101484.89
2019-02-12T07:37:14.514Z,101481.81
2019-02-12T07:42:54.558Z,101483.42
2019-02-12T07:48:14.144Z,101484.54
2019-02-12T07:53:35.086Z,101483.62
2019-02-12T07:59:10.163Z,101493.84
2019-02-12T08:04:59.086Z,101498.58
2019-02-12T08:10:49.383Z,101501.19
2019-02-12T08:16:36.725Z,101513.80
2019-02-12T08:22:44.931Z,101514.09
2019-02-12T08:28:52.099Z,101527.57
2019-02-12T08:34:46.898Z,101534.73
2019-02-12T08:40:31.044Z,101538.09
2019-02-12T08:46:12.139Z,101528.87
2019-02-12T08:51:57.387Z,101549.06
2019-02-12T08:57:26.461Z,101549.55
2019-02-12T09:03:05.390Z,101541.63
2019-02-12T09:08:41.563Z,101556.67
2019-02-12T09:13:55.513Z,101564.53
2019-02-12T09:19:37.018Z,101570.07
2019-02-12T09:25:14.561Z,101572.67
2019-02-12T09:30:37.699Z,101587.52
2019-02-12T09:36:07.355Z,101589.98
2019-02-12T09:41:27.664Z,101600.30
2019-02-12T09:47:07.617Z,101611.94
2019-02-12T09:52:27.813Z,101615.26
2019-02-12T09:58:11.833Z,101632.31
2019-02-12T10:04:00.871Z,101634.59
2019-02-12T10:09:40.656Z,101634.11
2019-02-12T10:15:04.677Z,101633.20
2019-02-12T10:20:23.908Z,101646.75
2019-02-12T10:25:38.116Z,101648.50
2019-02-12T10:31:03.651Z,101649.25
2019-02-12T10:36:05.849Z,101645.33
2019-02-12T10:41:07.985Z,101645.27
2019-02-12T10:46:10.098Z,101653.23
2019-02-12T10:51:12.244Z,101659.05
2019-02-12T10:56:14.428Z,101667.16
2019-02-12T11:01:16.580Z,101664.55
2019-02-12T11:06:18.667Z,101659.32
2019-02-12T11:11:20.762Z,101662.34
2019-02-12T11:16:22.859Z,101656.38
2019-02-12T11:21:24.908Z,101648.62
2019-02-12T11:26:27.027Z,101653.20
2019-02-12T11:31:29.077Z,101659.86
2019-02-12T11:36:31.315Z,101677.45
2019-02-12T11:41:33.408Z,101684.48
2019-02-12T11:46:35.466Z,101681.74
2019-02-12T11:51:37.507Z,101679.78
2019-02-12T11:56:39.776Z,101676.64
2019-02-12T12:01:41.830Z,101675.16
2019-02-12T12:06:43.974Z,101687.45
2019-02-12T12:11:46.108Z,101689.51
2019-02-12T12:16:48.159Z,101690.19
2019-02-12T12:21:50.390Z,101688.16
2019-02-12T12:26:52.492Z,101697.25
2019-02-12T12:31:54.535Z,101697.26
2019-02-12T12:36:56.600Z,101704.30
2019-02-12T12:41:58.647Z,101694.30
2019-02-12T12:47:00.708Z,101687.34
2019-02-12T12:52:02.789Z,101690.82
2019-02-12T12:57:04.880Z,101685.30
2019-02-12T13:02:06.994Z,101684.81
2019-02-12T13:07:09.070Z,101688.47
2019-02-12T13:12:12.382Z,101699.73
2019-02-12T13:17:14.555Z,101701.45
2019-02-12T13:22:16.688Z,101698.91
2019-02-12T13:27:18.770Z,101708.99
2019-02-12T13:32:20.870Z,101708.19
2019-02-12T13:37:22.989Z,101712.52
2019-02-12T13:42:25.048Z,101722.15
2019-02-12T13:47:27.106Z,101726.39
2019-02-12T13:52:29.354Z,101722.78
2019-02-12T13:57:31.398Z,101736.39
2019-02-12T14:02:33.373Z,101735.86
2019-02-12T14:07:37.627Z,101740.28
2019-02-12T14:12:39.794Z,101748.81
2019-02-12T14:17:41.861Z,101745.09
2019-02-12T14:22:43.988Z,101762.27
2019-02-12T14:27:46.106Z,101761.86
2019-02-12T14:32:48.176Z,101766.45
2019-02-12T14:37:50.262Z,101781.95
2019-02-12T14:42:53.439Z,101783.91
2019-02-12T14:47:57.320Z,101785.82
2019-02-12T14:53:01.534Z,101782.98
2019-02-12T14:58:03.613Z,101783.86
2019-02-12T15:03:05.830Z,101796.91
2019-02-12T15:08:07.944Z,101802.75
2019-02-12T15:13:10.024Z,101801.69
2019-02-12T15:18:12.154Z,101807.56
2019-02-12T15:23:14.245Z,101814.50
2019-02-12T15:28:16.441Z,101822.03
2019-02-12T15:33:18.624Z,101817.30
2019-02-12T15:38:20.696Z,101834.66
2019-02-12T15:43:22.809Z,101839.47
2019-02-12T15:48:24.886Z,101850.33
2019-02-12T15:53:27.011Z,101850.50
2019-02-12T15:58:30.289Z,101846.86
2019-02-12T16:03:34.021Z,101857.02
2019-02-12T16:08:36.539Z,101855.34
2019-02-12T16:13:38.619Z,101858.39
2019-02-12T16:18:40.791Z,101868.29
2019-02-12T16:23:42.928Z,101868.77
2019-02-12T16:28:45.023Z,101872.75
2019-02-12T16:33:47.104Z,101867.77
2019-02-12T16:38:50.543Z,101875.20
2019-02-12T16:43:52.685Z,101884.42
2019-02-12T16:48:57.565Z,101890.96
2019-02-12T16:53:59.798Z,101898.51
2019-02-12T16:59:03.796Z,101896.45
2019-02-12T17:04:06.238Z,101898.58
2019-02-12T17:09:08.311Z,101910.86
2019-02-12T17:14:10.410Z,101909.94
2019-02-12T17:19:12.490Z,101909.17
2019-02-12T17:24:14.554Z,101921.14
2019-02-12T17:29:16.651Z,101919.67
2019-02-12T17:34:18.862Z,101922.44
2019-02-12T17:39:20.947Z,101935.80
2019-02-12T17:44:23.053Z,101946.67
2019-02-12T17:49:25.155Z,101954.59
2019-02-12T17:54:27.541Z,101954.59
2019-02-12T17:59:29.632Z,101955.87
2019-02-12T18:04:33.850Z,101960.85
2019-02-12T18:09:35.887Z,101966.05
2019-02-12T18:14:37.914Z,101969.16
2019-02-12T18:19:40.065Z,101964.09
2019-02-12T18:24:42.143Z,101967.77
2019-02-12T18:29:46.490Z,101973.10
2019-02-12T18:34:48.733Z,101987.11
2019-02-12T18:39:50.794Z,101985.63
2019-02-12T18:44:52.867Z,101987.25
2019-02-12T18:49:54.940Z,101996.20
2019-02-12T18:54:57.073Z,102003.59
2019-02-12T18:59:59.264Z,102000.53
2019-02-12T19:05:01.348Z,101997.54
2019-02-12T19:10:03.513Z,102005.11
2019-02-12T19:15:08.784Z,102002.70
2019-02-12T19:20:12.584Z,102009.87
2019-02-12T19:25:16.120Z,102005.61
2019-02-12T19:30:19.416Z,102002.73
2019-02-12T19:35:21.595Z,102008.59
2019-02-12T19:40:23.652Z,102013.36
2019-02-12T19:45:28.150Z,102010.67
2019-02-12T19:50:30.221Z,102014.58
2019-02-12T19:55:32.298Z,102017.34
2019-02-12T20:00:34.427Z,102021.00
2019-02-12T20:05:36.659Z,102021.73
2019-02-12T20:10:38.697Z,102008.09
2019-02-12T20:15:42.007Z,102018.31
2019-02-12T20:20:44.113Z,102015.56
2019-02-12T20:25:47.928Z,102013.73
2019-02-12T20:30:52.908Z,102014.60
2019-02-12T20:35:54.945Z,102015.95
2019-02-12T20:40:57.003Z,102022.84
2019-02-12T20:45:59.162Z,102017.20
2019-02-12T20:51:01.341Z,102017.14
2019-02-12T20:56:03.540Z,102024.62
2019-02-12T21:01:11.047Z,102036.95
2019-02-12T21:06:13.163Z,102044.36
2019-02-12T21:11:15.304Z,102046.82
2019-02-12T21:16:17.410Z,102044.42
2019-02-12T21:21:19.470Z,102050.69
2019-02-12T21:26:21.533Z,102041.95
2019-02-12T21:31:23.595Z,102045.47
2019-02-12T21:36:25.651Z,102043.45
2019-02-12T21:41:27.735Z,102041.75
2019-02-12T21:46:29.797Z,102042.56
2019-02-12T21:51:31.883Z,102040.02
2019-02-12T21:56:34.000Z,102043.98
2019-02-12T22:01:36.170Z,102042.28
2019-02-12T22:06:38.354Z,102033.32
2019-02-12T22:11:40.517Z,102040.47
2019-02-12T22:16:42.654Z,102034.09
2019-02-12T22:21:44.685Z,102045.92
2019-02-12T22:26:46.745Z,102034.86
2019-02-12T22:31:48.869Z,102037.48
2019-02-12T22:36:50.977Z,102036.63
2019-02-12T22:41:53.075Z,102045.41
2019-02-12T22:46:55.132Z,102046.70
2019-02-12T22:51:58.303Z,102059.88
2019-02-12T22:57:00.669Z,102054.52
2019-02-12T23:02:02.901Z,102061.01
2019-02-12T23:07:05.377Z,102057.79
2019-02-12T23:12:07.674Z,102062.22
2019-02-12T23:17:09.709Z,102054.96
2019-02-12T23:22:14.225Z,102060.56
2019-02-12T23:27:16.481Z,102056.48
2019-02-12T23:32:18.530Z,102067.56
2019-02-12T23:37:22.425Z,102064.77
2019-02-12T23:42:24.504Z,102063.02
2019-02-12T23:47:26.573Z,102063.94
2019-02-12T23:52:28.684Z,102064.63
2019-02-12T23:57:30.782Z,102060.42
